sensor_id;sensor_type;location;lat;lon;timestamp;temperature;humidity
24224;DHT22;12359;49.716;9.212;2023-03-11T00:00:32;2.80;2.90
24224;DHT22;12359;49.716;9.212;2023-03-11T00:02:59;2.80;8.80
24224;DHT22;12359;49.716;9.212;2023-03-11T00:05:30;2.80;10.10
24224;DHT22;12359;49.716;9.212;2023-03-11T00:07:57;2.80;13.60
24224;DHT22;12359;49.716;9.212;2023-03-11T00:10:32;2.70;12.90
24224;DHT22;12359;49.716;9.212;2023-03-11T00:12:59;2.70;3.30
24224;DHT22;12359;49.716;9.212;2023-03-11T00:15:26;2.70;4.80
24224;DHT22;12359;49.716;9.212;2023-03-11T00:17:52;2.70;1.00
24224;DHT22;12359;49.716;9.212;2023-03-11T00:20:27;2.70;3.30
24224;DHT22;12359;49.716;9.212;2023-03-11T00:22:54;2.70;7.50
24224;DHT22;12359;49.716;9.212;2023-03-11T00:25:21;2.70;5.80
24224;DHT22;12359;49.716;9.212;2023-03-11T00:27:48;2.80;1.00
24224;DHT22;12359;49.716;9.212;2023-03-11T00:30:15;2.80;1.00
24224;DHT22;12359;49.716;9.212;2023-03-11T00:32:42;2.80;1.00
24224;DHT22;12359;49.716;9.212;2023-03-11T00:35:11;2.90;1.00
24224;DHT22;12359;49.716;9.212;2023-03-11T00:37:37;2.90;1.00
24224;DHT22;12359;49.716;9.212;2023-03-11T00:40:03;2.90;1.00
24224;DHT22;12359;49.716;9.212;2023-03-11T00:42:33;2.90;1.00
24224;DHT22;12359;49.716;9.212;2023-03-11T00:44:59;2.80;1.00
24224;DHT22;12359;49.716;9.212;2023-03-11T00:47:24;2.80;1.00
24224;DHT22;12359;49.716;9.212;2023-03-11T00:49:50;2.80;1.00
24224;DHT22;12359;49.716;9.212;2023-03-11T00:52:16;2.80;1.00
24224;DHT22;12359;49.716;9.212;2023-03-11T00:54:41;2.80;1.00
24224;DHT22;12359;49.716;9.212;2023-03-11T00:57:07;2.70;1.00
24224;DHT22;12359;49.716;9.212;2023-03-11T00:59:34;2.70;1.00
24224;DHT22;12359;49.716;9.212;2023-03-11T01:01:59;2.80;1.00
24224;DHT22;12359;49.716;9.212;2023-03-11T01:04:25;2.70;1.00
24224;DHT22;12359;49.716;9.212;2023-03-11T01:06:51;2.70;1.00
24224;DHT22;12359;49.716;9.212;2023-03-11T01:09:16;2.70;1.00
24224;DHT22;12359;49.716;9.212;2023-03-11T01:11:42;2.60;99.90
24224;DHT22;12359;49.716;9.212;2023-03-11T01:14:08;2.60;99.90
24224;DHT22;12359;49.716;9.212;2023-03-11T01:16:34;2.60;99.90
24224;DHT22;12359;49.716;9.212;2023-03-11T01:19:00;2.60;99.90
24224;DHT22;12359;49.716;9.212;2023-03-11T01:21:25;2.60;99.90
24224;DHT22;12359;49.716;9.212;2023-03-11T01:23:51;2.60;99.90
24224;DHT22;12359;49.716;9.212;2023-03-11T01:26:17;2.60;99.90
24224;DHT22;12359;49.716;9.212;2023-03-11T01:28:43;2.60;99.90
24224;DHT22;12359;49.716;9.212;2023-03-11T01:31:09;2.60;99.90
24224;DHT22;12359;49.716;9.212;2023-03-11T01:33:35;2.60;99.90
24224;DHT22;12359;49.716;9.212;2023-03-11T01:36:01;2.60;99.90
24224;DHT22;12359;49.716;9.212;2023-03-11T01:38:27;2.60;1.00
24224;DHT22;12359;49.716;9.212;2023-03-11T01:40:53;2.60;1.00
24224;DHT22;12359;49.716;9.212;2023-03-11T01:48:46;2.60;99.90
24224;DHT22;12359;49.716;9.212;2023-03-11T01:51:12;2.70;99.90
24224;DHT22;12359;49.716;9.212;2023-03-11T01:53:39;2.60;1.00
24224;DHT22;12359;49.716;9.212;2023-03-11T01:56:05;2.60;1.00
24224;DHT22;12359;49.716;9.212;2023-03-11T01:58:34;2.60;99.90
24224;DHT22;12359;49.716;9.212;2023-03-11T02:01:02;2.60;1.00
24224;DHT22;12359;49.716;9.212;2023-03-11T02:03:31;2.70;99.90
24224;DHT22;12359;49.716;9.212;2023-03-11T02:06:00;2.70;66.20
24224;DHT22;12359;49.716;9.212;2023-03-11T02:08:26;2.60;29.00
24224;DHT22;12359;49.716;9.212;2023-03-11T02:10:54;2.60;99.90
24224;DHT22;12359;49.716;9.212;2023-03-11T02:13:20;2.60;1.00
24224;DHT22;12359;49.716;9.212;2023-03-11T02:15:47;2.60;99.90
24224;DHT22;12359;49.716;9.212;2023-03-11T02:18:14;2.60;99.90
24224;DHT22;12359;49.716;9.212;2023-03-11T02:20:54;2.70;99.90
24224;DHT22;12359;49.716;9.212;2023-03-11T02:23:26;2.70;56.20
24224;DHT22;12359;49.716;9.212;2023-03-11T02:26:08;2.70;99.90
24224;DHT22;12359;49.716;9.212;2023-03-11T02:28:37;2.70;99.90
24224;DHT22;12359;49.716;9.212;2023-03-11T02:31:04;2.70;99.90
24224;DHT22;12359;49.716;9.212;2023-03-11T02:33:31;2.70;15.30
24224;DHT22;12359;49.716;9.212;2023-03-11T02:35:57;2.70;1.00
24224;DHT22;12359;49.716;9.212;2023-03-11T02:38:23;2.70;99.90
24224;DHT22;12359;49.716;9.212;2023-03-11T02:40:58;2.70;1.00
24224;DHT22;12359;49.716;9.212;2023-03-11T02:43:42;2.70;99.90
24224;DHT22;12359;49.716;9.212;2023-03-11T02:46:10;2.80;99.90
24224;DHT22;12359;49.716;9.212;2023-03-11T02:48:36;2.70;99.90
24224;DHT22;12359;49.716;9.212;2023-03-11T02:51:03;2.80;1.00
24224;DHT22;12359;49.716;9.212;2023-03-11T02:53:34;2.70;19.70
24224;DHT22;12359;49.716;9.212;2023-03-11T02:56:00;2.80;3.90
24224;DHT22;12359;49.716;9.212;2023-03-11T02:58:26;2.80;99.90
24224;DHT22;12359;49.716;9.212;2023-03-11T03:00:52;2.80;99.90
24224;DHT22;12359;49.716;9.212;2023-03-11T03:03:17;2.80;99.90
24224;DHT22;12359;49.716;9.212;2023-03-11T03:05:43;2.80;99.90
24224;DHT22;12359;49.716;9.212;2023-03-11T03:08:10;2.80;99.90
24224;DHT22;12359;49.716;9.212;2023-03-11T03:10:36;2.80;99.90
24224;DHT22;12359;49.716;9.212;2023-03-11T03:13:02;2.80;99.90
24224;DHT22;12359;49.716;9.212;2023-03-11T03:15:27;2.80;99.90
24224;DHT22;12359;49.716;9.212;2023-03-11T03:17:53;2.70;99.90
24224;DHT22;12359;49.716;9.212;2023-03-11T03:20:19;2.70;68.10
24224;DHT22;12359;49.716;9.212;2023-03-11T03:22:47;2.70;99.90
24224;DHT22;12359;49.716;9.212;2023-03-11T03:25:13;2.70;1.00
24224;DHT22;12359;49.716;9.212;2023-03-11T03:27:39;2.60;99.90
24224;DHT22;12359;49.716;9.212;2023-03-11T03:30:06;2.60;99.90
24224;DHT22;12359;49.716;9.212;2023-03-11T03:32:32;2.60;99.90
24224;DHT22;12359;49.716;9.212;2023-03-11T03:34:58;2.50;1.00
24224;DHT22;12359;49.716;9.212;2023-03-11T03:37:25;2.50;3.60
24224;DHT22;12359;49.716;9.212;2023-03-11T03:39:52;2.50;1.00
24224;DHT22;12359;49.716;9.212;2023-03-11T03:42:18;2.50;1.00
24224;DHT22;12359;49.716;9.212;2023-03-11T03:44:44;2.50;51.70
24224;DHT22;12359;49.716;9.212;2023-03-11T03:47:09;2.50;1.60
24224;DHT22;12359;49.716;9.212;2023-03-11T03:49:36;2.50;91.60
24224;DHT22;12359;49.716;9.212;2023-03-11T03:52:05;2.60;1.00
24224;DHT22;12359;49.716;9.212;2023-03-11T03:54:31;2.60;1.00
24224;DHT22;12359;49.716;9.212;2023-03-11T03:56:57;2.60;22.00
24224;DHT22;12359;49.716;9.212;2023-03-11T03:59:22;2.60;79.00
24224;DHT22;12359;49.716;9.212;2023-03-11T04:01:48;2.70;1.00
24224;DHT22;12359;49.716;9.212;2023-03-11T04:04:14;2.70;1.00
24224;DHT22;12359;49.716;9.212;2023-03-11T04:06:41;2.70;1.00
24224;DHT22;12359;49.716;9.212;2023-03-11T04:09:06;2.70;1.00
24224;DHT22;12359;49.716;9.212;2023-03-11T04:11:34;2.70;1.00
24224;DHT22;12359;49.716;9.212;2023-03-11T04:13:59;2.70;1.00
24224;DHT22;12359;49.716;9.212;2023-03-11T04:16:26;2.70;1.00
24224;DHT22;12359;49.716;9.212;2023-03-11T04:18:52;2.70;99.90
24224;DHT22;12359;49.716;9.212;2023-03-11T04:21:18;2.70;1.00
24224;DHT22;12359;49.716;9.212;2023-03-11T04:23:44;2.70;1.00
24224;DHT22;12359;49.716;9.212;2023-03-11T04:26:10;2.70;1.00
24224;DHT22;12359;49.716;9.212;2023-03-11T04:28:35;2.70;99.90
24224;DHT22;12359;49.716;9.212;2023-03-11T04:31:01;2.70;1.00
24224;DHT22;12359;49.716;9.212;2023-03-11T04:33:26;2.70;1.00
24224;DHT22;12359;49.716;9.212;2023-03-11T04:35:52;2.70;99.90
24224;DHT22;12359;49.716;9.212;2023-03-11T04:38:18;2.70;99.90
24224;DHT22;12359;49.716;9.212;2023-03-11T04:40:44;2.80;1.00
24224;DHT22;12359;49.716;9.212;2023-03-11T04:43:09;2.80;99.90
24224;DHT22;12359;49.716;9.212;2023-03-11T04:45:38;2.80;99.90
24224;DHT22;12359;49.716;9.212;2023-03-11T04:48:04;2.70;99.90
24224;DHT22;12359;49.716;9.212;2023-03-11T04:50:30;2.70;99.90
24224;DHT22;12359;49.716;9.212;2023-03-11T04:52:56;2.70;99.90
24224;DHT22;12359;49.716;9.212;2023-03-11T04:55:21;2.70;99.90
24224;DHT22;12359;49.716;9.212;2023-03-11T04:57:47;2.70;1.00
24224;DHT22;12359;49.716;9.212;2023-03-11T05:00:14;2.80;1.00
24224;DHT22;12359;49.716;9.212;2023-03-11T05:02:41;2.70;1.00
24224;DHT22;12359;49.716;9.212;2023-03-11T05:05:08;2.70;1.00
24224;DHT22;12359;49.716;9.212;2023-03-11T05:07:34;2.80;99.90
24224;DHT22;12359;49.716;9.212;2023-03-11T05:10:00;2.80;1.00
24224;DHT22;12359;49.716;9.212;2023-03-11T05:12:26;2.80;99.90
24224;DHT22;12359;49.716;9.212;2023-03-11T05:14:52;2.70;1.00
24224;DHT22;12359;49.716;9.212;2023-03-11T05:17:17;2.80;1.00
24224;DHT22;12359;49.716;9.212;2023-03-11T05:19:44;2.80;1.00
24224;DHT22;12359;49.716;9.212;2023-03-11T05:22:10;2.80;1.00
24224;DHT22;12359;49.716;9.212;2023-03-11T05:24:35;2.80;10.40
24224;DHT22;12359;49.716;9.212;2023-03-11T05:27:02;2.80;1.00
24224;DHT22;12359;49.716;9.212;2023-03-11T05:29:28;2.80;1.00
24224;DHT22;12359;49.716;9.212;2023-03-11T05:31:54;2.80;1.00
24224;DHT22;12359;49.716;9.212;2023-03-11T05:34:20;2.80;1.00
24224;DHT22;12359;49.716;9.212;2023-03-11T05:36:46;2.80;1.00
24224;DHT22;12359;49.716;9.212;2023-03-11T05:39:12;2.70;1.00
24224;DHT22;12359;49.716;9.212;2023-03-11T05:41:38;2.70;1.00
24224;DHT22;12359;49.716;9.212;2023-03-11T05:44:03;2.80;9.40
24224;DHT22;12359;49.716;9.212;2023-03-11T05:46:29;2.80;1.00
24224;DHT22;12359;49.716;9.212;2023-03-11T05:48:55;2.80;1.00
24224;DHT22;12359;49.716;9.212;2023-03-11T05:51:20;2.80;1.00
24224;DHT22;12359;49.716;9.212;2023-03-11T05:53:47;2.70;1.00
24224;DHT22;12359;49.716;9.212;2023-03-11T05:56:18;2.80;1.00
24224;DHT22;12359;49.716;9.212;2023-03-11T05:58:44;2.70;1.00
24224;DHT22;12359;49.716;9.212;2023-03-11T06:01:15;2.80;1.00
24224;DHT22;12359;49.716;9.212;2023-03-11T06:03:42;2.70;1.00
24224;DHT22;12359;49.716;9.212;2023-03-11T06:06:10;2.70;1.00
24224;DHT22;12359;49.716;9.212;2023-03-11T06:08:37;2.70;1.00
24224;DHT22;12359;49.716;9.212;2023-03-11T06:11:07;2.70;11.00
24224;DHT22;12359;49.716;9.212;2023-03-11T06:13:34;2.70;2.40
24224;DHT22;12359;49.716;9.212;2023-03-11T06:16:00;2.70;12.40
24224;DHT22;12359;49.716;9.212;2023-03-11T06:18:26;2.80;37.50
24224;DHT22;12359;49.716;9.212;2023-03-11T06:20:52;2.80;11.10
24224;DHT22;12359;49.716;9.212;2023-03-11T06:23:19;2.80;1.00
24224;DHT22;12359;49.716;9.212;2023-03-11T06:26:01;2.80;1.00
24224;DHT22;12359;49.716;9.212;2023-03-11T06:28:28;2.80;1.00
24224;DHT22;12359;49.716;9.212;2023-03-11T06:30:54;2.90;11.60
24224;DHT22;12359;49.716;9.212;2023-03-11T06:33:23;2.90;1.00
24224;DHT22;12359;49.716;9.212;2023-03-11T06:35:56;2.90;1.00
24224;DHT22;12359;49.716;9.212;2023-03-11T06:38:22;3.00;1.00
24224;DHT22;12359;49.716;9.212;2023-03-11T06:40:48;3.00;1.00
24224;DHT22;12359;49.716;9.212;2023-03-11T06:43:14;2.90;1.00
24224;DHT22;12359;49.716;9.212;2023-03-11T06:45:39;2.90;1.00
24224;DHT22;12359;49.716;9.212;2023-03-11T06:48:05;3.00;1.00
24224;DHT22;12359;49.716;9.212;2023-03-11T06:50:31;3.00;1.00
24224;DHT22;12359;49.716;9.212;2023-03-11T06:52:56;3.00;1.00
24224;DHT22;12359;49.716;9.212;2023-03-11T06:55:22;3.00;1.00
24224;DHT22;12359;49.716;9.212;2023-03-11T06:57:48;3.10;1.00
24224;DHT22;12359;49.716;9.212;2023-03-11T07:00:14;3.10;1.00
24224;DHT22;12359;49.716;9.212;2023-03-11T07:02:41;3.20;1.00
24224;DHT22;12359;49.716;9.212;2023-03-11T07:05:07;3.20;1.00
24224;DHT22;12359;49.716;9.212;2023-03-11T07:07:33;3.20;99.90
24224;DHT22;12359;49.716;9.212;2023-03-11T07:09:59;3.20;99.90
24224;DHT22;12359;49.716;9.212;2023-03-11T07:12:24;3.30;99.90
24224;DHT22;12359;49.716;9.212;2023-03-11T07:14:57;3.50;99.90
24224;DHT22;12359;49.716;9.212;2023-03-11T07:17:23;3.60;99.90
24224;DHT22;12359;49.716;9.212;2023-03-11T07:19:49;3.80;99.90
24224;DHT22;12359;49.716;9.212;2023-03-11T07:22:15;3.90;1.00
24224;DHT22;12359;49.716;9.212;2023-03-11T07:24:44;4.10;43.90
24224;DHT22;12359;49.716;9.212;2023-03-11T07:27:11;4.30;1.00
24224;DHT22;12359;49.716;9.212;2023-03-11T07:29:36;4.40;1.00
24224;DHT22;12359;49.716;9.212;2023-03-11T07:32:02;4.60;92.50
24224;DHT22;12359;49.716;9.212;2023-03-11T07:34:28;4.70;1.00
24224;DHT22;12359;49.716;9.212;2023-03-11T07:36:53;4.80;99.90
24224;DHT22;12359;49.716;9.212;2023-03-11T07:39:20;4.80;99.90
24224;DHT22;12359;49.716;9.212;2023-03-11T07:41:46;4.90;1.00
24224;DHT22;12359;49.716;9.212;2023-03-11T07:44:13;5.00;1.00
24224;DHT22;12359;49.716;9.212;2023-03-11T07:46:39;4.90;99.90
24224;DHT22;12359;49.716;9.212;2023-03-11T07:49:05;5.10;48.00
24224;DHT22;12359;49.716;9.212;2023-03-11T07:51:33;5.80;99.90
24224;DHT22;12359;49.716;9.212;2023-03-11T07:53:59;6.30;55.10
24224;DHT22;12359;49.716;9.212;2023-03-11T07:56:28;7.10;56.50
24224;DHT22;12359;49.716;9.212;2023-03-11T07:58:55;7.30;1.00
24224;DHT22;12359;49.716;9.212;2023-03-11T08:01:23;7.50;99.90
24224;DHT22;12359;49.716;9.212;2023-03-11T08:03:51;7.50;48.60
24224;DHT22;12359;49.716;9.212;2023-03-11T08:06:23;7.10;93.20
24224;DHT22;12359;49.716;9.212;2023-03-11T08:08:50;6.60;94.00
24224;DHT22;12359;49.716;9.212;2023-03-11T08:11:17;6.10;1.00
24224;DHT22;12359;49.716;9.212;2023-03-11T08:13:44;5.50;99.90
24224;DHT22;12359;49.716;9.212;2023-03-11T08:16:13;5.40;1.00
24224;DHT22;12359;49.716;9.212;2023-03-11T08:18:39;5.70;53.40
24224;DHT22;12359;49.716;9.212;2023-03-11T08:21:11;5.90;25.50
24224;DHT22;12359;49.716;9.212;2023-03-11T08:23:37;6.20;99.90
24224;DHT22;12359;49.716;9.212;2023-03-11T08:26:08;6.10;1.00
24224;DHT22;12359;49.716;9.212;2023-03-11T08:28:34;6.10;99.90
24224;DHT22;12359;49.716;9.212;2023-03-11T08:31:01;5.80;99.90
24224;DHT22;12359;49.716;9.212;2023-03-11T08:33:26;5.60;30.40
24224;DHT22;12359;49.716;9.212;2023-03-11T08:35:52;5.30;99.90
24224;DHT22;12359;49.716;9.212;2023-03-11T08:38:18;5.30;47.30
24224;DHT22;12359;49.716;9.212;2023-03-11T08:40:44;5.40;93.40
24224;DHT22;12359;49.716;9.212;2023-03-11T08:43:13;5.80;1.00
24224;DHT22;12359;49.716;9.212;2023-03-11T08:45:42;6.10;99.90
24224;DHT22;12359;49.716;9.212;2023-03-11T08:48:09;6.30;1.00
24224;DHT22;12359;49.716;9.212;2023-03-11T08:50:35;6.50;1.00
24224;DHT22;12359;49.716;9.212;2023-03-11T08:53:01;6.50;1.00
24224;DHT22;12359;49.716;9.212;2023-03-11T08:55:28;6.40;99.90
24224;DHT22;12359;49.716;9.212;2023-03-11T08:57:53;6.20;99.90
24224;DHT22;12359;49.716;9.212;2023-03-11T09:00:19;6.20;1.00
24224;DHT22;12359;49.716;9.212;2023-03-11T09:02:45;6.00;99.90
24224;DHT22;12359;49.716;9.212;2023-03-11T09:05:12;5.80;1.00
24224;DHT22;12359;49.716;9.212;2023-03-11T09:07:38;5.60;1.00
24224;DHT22;12359;49.716;9.212;2023-03-11T09:10:04;5.40;1.00
24224;DHT22;12359;49.716;9.212;2023-03-11T09:12:30;5.60;99.90
24224;DHT22;12359;49.716;9.212;2023-03-11T09:14:56;6.00;1.00
24224;DHT22;12359;49.716;9.212;2023-03-11T09:17:22;5.90;99.90
24224;DHT22;12359;49.716;9.212;2023-03-11T09:19:47;5.90;99.90
24224;DHT22;12359;49.716;9.212;2023-03-11T09:22:13;5.80;99.90
24224;DHT22;12359;49.716;9.212;2023-03-11T09:24:39;5.70;99.90
24224;DHT22;12359;49.716;9.212;2023-03-11T09:27:04;5.50;99.90
24224;DHT22;12359;49.716;9.212;2023-03-11T09:29:30;5.20;99.90
24224;DHT22;12359;49.716;9.212;2023-03-11T09:31:56;4.90;99.90
24224;DHT22;12359;49.716;9.212;2023-03-11T09:34:22;4.90;1.00
24224;DHT22;12359;49.716;9.212;2023-03-11T09:36:48;4.90;1.00
24224;DHT22;12359;49.716;9.212;2023-03-11T09:39:14;5.00;1.00
24224;DHT22;12359;49.716;9.212;2023-03-11T09:58:00;8.60;99.90
24224;DHT22;12359;49.716;9.212;2023-03-11T10:00:27;9.10;99.90
24224;DHT22;12359;49.716;9.212;2023-03-11T10:02:53;8.60;99.90
24224;DHT22;12359;49.716;9.212;2023-03-11T10:05:22;8.40;99.90
24224;DHT22;12359;49.716;9.212;2023-03-11T10:10:47;8.10;99.90
24224;DHT22;12359;49.716;9.212;2023-03-11T10:19:01;6.90;1.00
24224;DHT22;12359;49.716;9.212;2023-03-11T10:21:52;6.60;99.90
24224;DHT22;12359;49.716;9.212;2023-03-11T10:28:11;6.30;99.90
24224;DHT22;12359;49.716;9.212;2023-03-11T10:30:36;6.20;99.90
24224;DHT22;12359;49.716;9.212;2023-03-11T10:35:57;6.10;99.90
24224;DHT22;12359;49.716;9.212;2023-03-11T10:38:33;6.10;99.90
24224;DHT22;12359;49.716;9.212;2023-03-11T10:41:05;6.00;99.90
24224;DHT22;12359;49.716;9.212;2023-03-11T10:43:39;6.00;39.40
24224;DHT22;12359;49.716;9.212;2023-03-11T10:46:22;6.10;99.90
24224;DHT22;12359;49.716;9.212;2023-03-11T10:48:49;6.00;1.00
24224;DHT22;12359;49.716;9.212;2023-03-11T10:51:15;5.80;72.00
24224;DHT22;12359;49.716;9.212;2023-03-11T10:53:55;5.60;99.90
24224;DHT22;12359;49.716;9.212;2023-03-11T10:56:28;5.40;1.00
24224;DHT22;12359;49.716;9.212;2023-03-11T10:58:55;5.60;23.80
24224;DHT22;12359;49.716;9.212;2023-03-11T11:01:22;5.80;99.90
24224;DHT22;12359;49.716;9.212;2023-03-11T11:03:53;5.70;1.00
24224;DHT22;12359;49.716;9.212;2023-03-11T11:06:32;5.90;99.90
24224;DHT22;12359;49.716;9.212;2023-03-11T11:09:17;5.90;99.90
24224;DHT22;12359;49.716;9.212;2023-03-11T11:12:12;6.00;99.90
24224;DHT22;12359;49.716;9.212;2023-03-11T11:17:27;5.90;99.90
24224;DHT22;12359;49.716;9.212;2023-03-11T11:19:55;6.10;1.00
24224;DHT22;12359;49.716;9.212;2023-03-11T11:22:23;6.40;1.00
24224;DHT22;12359;49.716;9.212;2023-03-11T11:24:52;6.60;99.90
24224;DHT22;12359;49.716;9.212;2023-03-11T11:29:44;7.50;99.90
24224;DHT22;12359;49.716;9.212;2023-03-11T11:32:15;7.70;99.90
24224;DHT22;12359;49.716;9.212;2023-03-11T11:37:24;8.10;99.90
24224;DHT22;12359;49.716;9.212;2023-03-11T11:39:56;8.70;99.90
24224;DHT22;12359;49.716;9.212;2023-03-11T11:42:24;9.70;90.60
24224;DHT22;12359;49.716;9.212;2023-03-11T11:44:59;10.10;1.00
24224;DHT22;12359;49.716;9.212;2023-03-11T11:47:32;10.30;1.00
24224;DHT22;12359;49.716;9.212;2023-03-11T11:50:03;11.10;1.00
24224;DHT22;12359;49.716;9.212;2023-03-11T11:52:41;11.00;1.00
24224;DHT22;12359;49.716;9.212;2023-03-11T11:57:46;11.70;1.00
24224;DHT22;12359;49.716;9.212;2023-03-11T12:00:18;11.60;1.00
24224;DHT22;12359;49.716;9.212;2023-03-11T12:03:11;11.10;1.00
24224;DHT22;12359;49.716;9.212;2023-03-11T12:05:57;10.10;1.00
24224;DHT22;12359;49.716;9.212;2023-03-11T12:13:57;8.70;1.00
24224;DHT22;12359;49.716;9.212;2023-03-11T12:19:14;8.00;1.00
24224;DHT22;12359;49.716;9.212;2023-03-11T12:27:28;7.10;1.00
24224;DHT22;12359;49.716;9.212;2023-03-11T12:30:00;6.90;1.00
24224;DHT22;12359;49.716;9.212;2023-03-11T12:32:37;6.80;1.00
24224;DHT22;12359;49.716;9.212;2023-03-11T12:35:22;6.70;1.00
24224;DHT22;12359;49.716;9.212;2023-03-11T12:37:58;6.60;2.80
24224;DHT22;12359;49.716;9.212;2023-03-11T12:41:02;6.70;16.30
24224;DHT22;12359;49.716;9.212;2023-03-11T12:46:03;6.80;7.10
24224;DHT22;12359;49.716;9.212;2023-03-11T12:48:41;6.70;1.00
24224;DHT22;12359;49.716;9.212;2023-03-11T12:54:20;6.60;1.00
24224;DHT22;12359;49.716;9.212;2023-03-11T12:56:58;6.60;1.00
24224;DHT22;12359;49.716;9.212;2023-03-11T12:59:54;6.70;8.70
24224;DHT22;12359;49.716;9.212;2023-03-11T13:10:53;7.50;94.00
24224;DHT22;12359;49.716;9.212;2023-03-11T13:13:00;7.40;66.80
24224;DHT22;12359;49.716;9.212;2023-03-11T13:15:33;7.30;48.20
24224;DHT22;12359;49.716;9.212;2023-03-11T13:18:00;7.30;56.40
24224;DHT22;12359;49.716;9.212;2023-03-11T13:41:54;7.00;45.20
24224;DHT22;12359;49.716;9.212;2023-03-11T13:46:52;6.70;49.20
24224;DHT22;12359;49.716;9.212;2023-03-11T13:49:34;6.70;58.10
24224;DHT22;12359;49.716;9.212;2023-03-11T13:52:03;6.60;61.40
24224;DHT22;12359;49.716;9.212;2023-03-11T13:57:32;6.40;51.50
24224;DHT22;12359;49.716;9.212;2023-03-11T14:00:13;6.40;75.20
24224;DHT22;12359;49.716;9.212;2023-03-11T14:02:46;6.30;88.90
24224;DHT22;12359;49.716;9.212;2023-03-11T14:05:21;6.30;92.30
24224;DHT22;12359;49.716;9.212;2023-03-11T14:07:47;6.30;88.30
24224;DHT22;12359;49.716;9.212;2023-03-11T14:10:25;6.20;99.90
24224;DHT22;12359;49.716;9.212;2023-03-11T14:13:02;6.10;99.90
24224;DHT22;12359;49.716;9.212;2023-03-11T14:15:36;6.00;99.90
24224;DHT22;12359;49.716;9.212;2023-03-11T14:20:52;5.90;99.90
24224;DHT22;12359;49.716;9.212;2023-03-11T14:23:18;6.00;99.90
24224;DHT22;12359;49.716;9.212;2023-03-11T14:25:44;6.10;99.90
24224;DHT22;12359;49.716;9.212;2023-03-11T14:28:19;6.10;99.90
24224;DHT22;12359;49.716;9.212;2023-03-11T14:30:56;6.20;99.90
24224;DHT22;12359;49.716;9.212;2023-03-11T14:33:22;6.30;99.90
24224;DHT22;12359;49.716;9.212;2023-03-11T14:36:14;6.30;89.30
24224;DHT22;12359;49.716;9.212;2023-03-11T14:38:42;6.30;60.30
24224;DHT22;12359;49.716;9.212;2023-03-11T14:41:12;6.20;54.10
24224;DHT22;12359;49.716;9.212;2023-03-11T14:43:40;6.20;52.30
24224;DHT22;12359;49.716;9.212;2023-03-11T14:46:07;6.10;40.60
24224;DHT22;12359;49.716;9.212;2023-03-11T14:48:39;6.20;48.80
24224;DHT22;12359;49.716;9.212;2023-03-11T14:51:15;6.20;43.00
24224;DHT22;12359;49.716;9.212;2023-03-11T14:54:03;6.20;56.50
24224;DHT22;12359;49.716;9.212;2023-03-11T14:56:35;6.10;47.00
24224;DHT22;12359;49.716;9.212;2023-03-11T15:01:39;5.90;44.10
24224;DHT22;12359;49.716;9.212;2023-03-11T15:07:03;6.10;56.50
24224;DHT22;12359;49.716;9.212;2023-03-11T15:09:29;6.20;39.10
24224;DHT22;12359;49.716;9.212;2023-03-11T15:11:57;6.10;39.10
24224;DHT22;12359;49.716;9.212;2023-03-11T15:14:35;6.00;35.20
24224;DHT22;12359;49.716;9.212;2023-03-11T15:19:44;6.20;50.60
24224;DHT22;12359;49.716;9.212;2023-03-11T15:22:42;6.30;48.30
24224;DHT22;12359;49.716;9.212;2023-03-11T15:25:16;6.30;42.50
24224;DHT22;12359;49.716;9.212;2023-03-11T15:27:42;6.30;30.80
24224;DHT22;12359;49.716;9.212;2023-03-11T15:30:24;6.40;30.50
24224;DHT22;12359;49.716;9.212;2023-03-11T15:32:51;6.40;24.30
24224;DHT22;12359;49.716;9.212;2023-03-11T15:35:22;6.40;29.60
24224;DHT22;12359;49.716;9.212;2023-03-11T15:38:17;6.30;25.70
24224;DHT22;12359;49.716;9.212;2023-03-11T15:40:37;6.30;25.20
24224;DHT22;12359;49.716;9.212;2023-03-11T15:45:40;6.20;23.90
24224;DHT22;12359;49.716;9.212;2023-03-11T15:48:10;6.30;26.40
24224;DHT22;12359;49.716;9.212;2023-03-11T15:50:49;6.30;34.60
24224;DHT22;12359;49.716;9.212;2023-03-11T15:53:15;6.30;35.20
24224;DHT22;12359;49.716;9.212;2023-03-11T15:55:40;6.20;31.00
24224;DHT22;12359;49.716;9.212;2023-03-11T15:58:08;6.20;24.30
24224;DHT22;12359;49.716;9.212;2023-03-11T16:00:35;6.20;29.50
24224;DHT22;12359;49.716;9.212;2023-03-11T16:03:01;6.10;30.50
24224;DHT22;12359;49.716;9.212;2023-03-11T16:05:27;6.00;25.50
24224;DHT22;12359;49.716;9.212;2023-03-11T16:07:53;6.00;27.00
24224;DHT22;12359;49.716;9.212;2023-03-11T16:10:21;5.90;23.30
24224;DHT22;12359;49.716;9.212;2023-03-11T16:12:47;5.90;25.10
24224;DHT22;12359;49.716;9.212;2023-03-11T16:17:50;5.90;28.40
24224;DHT22;12359;49.716;9.212;2023-03-11T16:20:18;5.80;24.90
24224;DHT22;12359;49.716;9.212;2023-03-11T16:22:44;5.70;21.10
24224;DHT22;12359;49.716;9.212;2023-03-11T16:25:32;5.70;30.10
24224;DHT22;12359;49.716;9.212;2023-03-11T16:27:59;5.60;29.00
24224;DHT22;12359;49.716;9.212;2023-03-11T16:30:27;5.60;37.40
24224;DHT22;12359;49.716;9.212;2023-03-11T16:32:53;5.50;36.40
24224;DHT22;12359;49.716;9.212;2023-03-11T16:35:19;5.40;40.90
24224;DHT22;12359;49.716;9.212;2023-03-11T16:37:45;5.40;53.20
24224;DHT22;12359;49.716;9.212;2023-03-11T16:40:17;5.30;48.70
24224;DHT22;12359;49.716;9.212;2023-03-11T16:42:45;5.20;63.90
24224;DHT22;12359;49.716;9.212;2023-03-11T16:45:12;5.10;69.20
24224;DHT22;12359;49.716;9.212;2023-03-11T16:47:38;5.10;86.00
24224;DHT22;12359;49.716;9.212;2023-03-11T16:50:05;5.00;99.90
24224;DHT22;12359;49.716;9.212;2023-03-11T16:52:30;5.00;99.90
24224;DHT22;12359;49.716;9.212;2023-03-11T16:54:56;5.00;99.90
24224;DHT22;12359;49.716;9.212;2023-03-11T16:57:22;4.90;99.90
24224;DHT22;12359;49.716;9.212;2023-03-11T16:59:48;4.80;99.90
24224;DHT22;12359;49.716;9.212;2023-03-11T17:02:14;4.70;99.90
24224;DHT22;12359;49.716;9.212;2023-03-11T17:04:39;4.70;99.90
24224;DHT22;12359;49.716;9.212;2023-03-11T17:07:06;4.60;99.90
24224;DHT22;12359;49.716;9.212;2023-03-11T17:09:33;4.60;1.00
24224;DHT22;12359;49.716;9.212;2023-03-11T17:12:00;4.60;12.00
24224;DHT22;12359;49.716;9.212;2023-03-11T17:14:26;4.50;6.40
24224;DHT22;12359;49.716;9.212;2023-03-11T17:16:52;4.40;99.90
24224;DHT22;12359;49.716;9.212;2023-03-11T17:19:17;4.40;99.90
24224;DHT22;12359;49.716;9.212;2023-03-11T17:21:43;4.30;99.90
24224;DHT22;12359;49.716;9.212;2023-03-11T17:24:10;4.20;99.90
24224;DHT22;12359;49.716;9.212;2023-03-11T17:26:35;4.20;99.90
24224;DHT22;12359;49.716;9.212;2023-03-11T17:29:01;4.20;99.90
24224;DHT22;12359;49.716;9.212;2023-03-11T17:31:27;4.10;99.90
24224;DHT22;12359;49.716;9.212;2023-03-11T17:33:52;4.00;99.90
24224;DHT22;12359;49.716;9.212;2023-03-11T17:36:18;3.90;1.00
24224;DHT22;12359;49.716;9.212;2023-03-11T17:38:45;3.80;1.00
24224;DHT22;12359;49.716;9.212;2023-03-11T17:41:14;3.80;1.00
24224;DHT22;12359;49.716;9.212;2023-03-11T17:43:40;3.70;1.60
24224;DHT22;12359;49.716;9.212;2023-03-11T17:46:11;3.60;99.90
24224;DHT22;12359;49.716;9.212;2023-03-11T17:48:39;3.50;1.00
24224;DHT22;12359;49.716;9.212;2023-03-11T17:51:10;3.40;1.00
24224;DHT22;12359;49.716;9.212;2023-03-11T17:53:38;3.40;99.90
24224;DHT22;12359;49.716;9.212;2023-03-11T17:56:05;3.30;37.80
24224;DHT22;12359;49.716;9.212;2023-03-11T17:58:31;3.30;99.90